createdAt,value
2023-04-19T00:09:39.826Z,9
2023-04-19T00:19:45.984Z,14
2023-04-19T00:29:51.723Z,11
2023-04-19T00:39:57.911Z,11
2023-04-19T00:50:03.805Z,12
2023-04-19T01:00:09.813Z,13
2023-04-19T01:10:15.494Z,15
2023-04-19T01:20:20.504Z,15
2023-04-19T01:30:26.945Z,12
2023-04-19T01:40:32.769Z,11
2023-04-19T01:50:37.955Z,11
2023-04-19T02:00:43.471Z,11
2023-04-19T02:10:50.688Z,10
2023-04-19T02:20:54.793Z,11
2023-04-19T02:31:00.622Z,14
2023-04-19T02:41:06.585Z,14
2023-04-19T02:51:11.962Z,14
2023-04-19T03:01:18.980Z,15
2023-04-19T03:11:24.720Z,14
2023-04-19T03:21:31.727Z,14
2023-04-19T03:31:37.265Z,14
2023-04-19T03:41:44.181Z,13
2023-04-19T03:51:50.897Z,13
2023-04-19T04:01:56.144Z,13
2023-04-19T04:12:01.021Z,18
2023-04-19T04:22:05.894Z,16
2023-04-19T04:32:12.889Z,16
2023-04-19T04:42:19.414Z,16
2023-04-19T04:52:23.984Z,15
2023-04-19T05:02:30.328Z,18
2023-04-19T05:12:36.785Z,17
2023-04-19T05:22:43.308Z,16
2023-04-19T05:32:49.661Z,14
2023-04-19T05:42:55.886Z,17
2023-04-19T05:53:03.241Z,18
2023-04-19T06:03:10.737Z,19
2023-04-19T06:13:17.048Z,21
2023-04-19T06:23:24.011Z,20
2023-04-19T06:33:29.688Z,19
2023-04-19T06:43:36.433Z,19
2023-04-19T06:53:45.173Z,18
2023-04-19T07:03:48.594Z,22
2023-04-19T07:13:53.018Z,36
2023-04-19T07:23:59.278Z,52
2023-04-19T07:34:09.947Z,50
2023-04-19T07:44:11.737Z,38
2023-04-19T07:54:17.379Z,20
2023-04-19T08:04:26.239Z,41
2023-04-19T08:26:41.150Z,19
2023-04-19T08:37:03.111Z,19
2023-04-19T08:47:20.456Z,16
2023-04-19T08:57:24.093Z,16
2023-04-19T09:07:31.050Z,14
2023-04-19T09:17:37.755Z,14
2023-04-19T09:28:13.192Z,15
2023-04-19T09:38:53.688Z,15
2023-04-19T09:50:31.990Z,14
2023-04-19T10:00:24.447Z,14
2023-04-19T10:11:16.409Z,17
2023-04-19T10:21:18.313Z,17
2023-04-19T10:31:25.574Z,20
2023-04-19T10:41:32.592Z,16
2023-04-19T10:51:36.557Z,19
2023-04-19T11:01:43.527Z,19
2023-04-19T11:11:49.537Z,22
2023-04-19T11:22:00.440Z,23
2023-04-19T11:32:05.428Z,20
2023-04-19T11:42:10.792Z,21
2023-04-19T11:52:16.734Z,19
2023-04-19T12:02:24.418Z,23
2023-04-19T12:12:28.846Z,20
2023-04-19T12:22:35.384Z,24
2023-04-19T12:32:42.388Z,22
2023-04-19T12:42:48.354Z,23
2023-04-19T12:52:54.596Z,22
2023-04-19T13:02:58.841Z,20
2023-04-19T13:13:05.212Z,20
2023-04-19T13:23:12.342Z,22
2023-04-19T13:33:17.600Z,24
2023-04-19T13:43:24.415Z,23
2023-04-19T13:53:30.286Z,25
2023-04-19T14:03:40.099Z,23
2023-04-19T14:13:44.485Z,22
2023-04-19T14:23:51.040Z,24
2023-04-19T14:33:56.679Z,18
2023-04-19T14:44:04.240Z,17
2023-04-19T14:54:15.178Z,23
2023-04-19T15:04:19.891Z,24
2023-04-19T15:14:23.876Z,21
2023-04-19T15:24:30.315Z,19
2023-04-19T15:34:37.467Z,20
2023-04-19T15:44:46.181Z,15
2023-04-19T15:54:53.707Z,16
2023-04-19T16:05:02.089Z,14
2023-04-19T16:15:07.343Z,13
2023-04-19T16:25:14.013Z,4
2023-04-19T16:35:21.855Z,6
2023-04-19T16:45:27.968Z,5
2023-04-19T16:55:33.999Z,4
2023-04-19T17:05:41.158Z,6
2023-04-19T17:15:46.607Z,6
2023-04-19T17:25:53.083Z,5
2023-04-19T17:35:59.777Z,5
2023-04-19T17:46:06.374Z,5
2023-04-19T17:56:13.193Z,6
2023-04-19T18:06:19.491Z,4
2023-04-19T18:16:26.243Z,5
2023-04-19T18:26:33.816Z,5
2023-04-19T18:36:41.391Z,5
2023-04-19T18:46:52.552Z,4
2023-04-19T18:57:53.356Z,5
2023-04-19T19:08:20.840Z,6
2023-04-19T19:18:53.000Z,5
2023-04-19T19:29:01.057Z,4
2023-04-19T19:39:05.431Z,6
2023-04-19T19:49:24.874Z,3
2023-04-19T20:01:45.454Z,4
2023-04-19T20:12:51.116Z,5
2023-04-19T20:22:56.701Z,4
2023-04-19T20:33:03.570Z,4
2023-04-19T20:43:07.585Z,4
2023-04-19T20:53:14.854Z,5
2023-04-19T21:03:21.547Z,3
2023-04-19T21:13:26.887Z,6
2023-04-19T21:23:32.383Z,6
2023-04-19T21:33:38.908Z,8
2023-04-19T21:43:45.305Z,4
2023-04-19T21:53:52.590Z,4
2023-04-19T22:04:00.745Z,5
2023-04-19T22:14:04.788Z,4
2023-04-19T22:24:09.701Z,4
2023-04-19T22:34:16.727Z,4
2023-04-19T22:44:22.653Z,4
2023-04-19T22:54:28.888Z,6
2023-04-19T23:04:35.454Z,5
2023-04-19T23:14:40.609Z,4
2023-04-19T23:24:46.635Z,7
2023-04-19T23:34:52.438Z,4
2023-04-19T23:44:58.006Z,6
2023-04-19T23:55:04.920Z,5
